KBFF/BFF METAR and TAF weather

Enter ICAO airport designator
Station Type Date Time Source
KBFF METAR 2019/04/18 09:53 UTC NOAA

KBFF 180953Z AUTO 30009KT 10SM SCT100 BKN120 04/02 A3005 RMK AO2 SLP164 T00390017


Station Type Date Time Source
KBFF Decoded METAR 2019/04/18 09:53 UTC NOAA

SCOTTSBLUFF HEILIG FIELD, NE, United States (KBFF) 41-52N 103-36W 1203M
Apr 18, 2019 - 05:53 AM EDT / 2019.04.18 0953 UTC
Wind: from the WNW (300 degrees) at 10 MPH (9 KT):0
Visibility: 10 mile(s):0
Sky conditions: mostly cloudy
Temperature: 39.0 F (3.9 C)
Dew Point: 35.1 F (1.7 C)
Relative Humidity: 85%
Pressure (altimeter): 30.05 in. Hg (1017 hPa)
ob: KBFF 180953Z AUTO 30009KT 10SM SCT100 BKN120 04/02 A3005 RMK AO2 SLP164 T00390017
cycle: 10

Station Type Date Time Source
KBFF TAF 2019/04/18 06:28 UTC NOAA

TAF KBFF 180526Z 1806/1906 31008KT P6SM BKN050
FM181400 32025G35KT P6SM BKN050
FM190200 01006KT P6SM SCT050

Example: see airport list